createdAt,value
2023-02-13T00:05:27.888Z,24.8
2023-02-13T00:10:32.833Z,24.5
2023-02-13T00:15:55.245Z,24.8
2023-02-13T00:21:33.081Z,24.8
2023-02-13T00:33:02.617Z,24.7
2023-02-13T00:38:40.112Z,24.5
2023-02-13T00:44:01.151Z,24.6
2023-02-13T00:49:39.867Z,24.6
2023-02-13T00:55:02.324Z,24.4
2023-02-13T01:00:38.008Z,24.8
2023-02-13T01:05:30.490Z,24.4
2023-02-13T01:10:37.381Z,24.6
2023-02-13T01:16:13.706Z,24.7
2023-02-13T01:21:50.983Z,24.4
2023-02-13T01:27:27.913Z,24.7
2023-02-13T01:33:05.916Z,24.5
2023-02-13T01:38:44.182Z,24.6
2023-02-13T01:44:22.416Z,24.8
2023-02-13T01:50:01.220Z,24.4
2023-02-13T01:55:38.050Z,24.8
2023-02-13T02:01:00.133Z,24.8
2023-02-13T02:06:22.750Z,24.6
2023-02-13T02:11:59.816Z,24.6
2023-02-13T02:17:37.097Z,24.6
2023-02-13T02:22:58.883Z,24.5
2023-02-13T02:28:36.650Z,24.6
2023-02-13T02:34:14.126Z,24.4
2023-02-13T02:39:50.757Z,24.7
2023-02-13T02:45:29.475Z,24.4
2023-02-13T02:51:07.553Z,24.6
2023-02-13T02:56:43.838Z,24.6
2023-02-13T03:02:21.476Z,24.4
2023-02-13T03:07:58.972Z,24.7
2023-02-13T03:13:36.997Z,24.4
2023-02-13T03:19:14.646Z,24.6
2023-02-13T03:24:51.766Z,24.6
2023-02-13T03:30:28.925Z,24.4
2023-02-13T03:36:07.200Z,24.8
2023-02-13T03:41:43.700Z,24.4
2023-02-13T03:47:21.129Z,24.6
2023-02-13T03:52:58.747Z,24.7
2023-02-13T03:58:35.692Z,24.4
2023-02-13T04:04:12.436Z,24.5
2023-02-13T04:09:50.137Z,24.6
2023-02-13T04:14:57.831Z,24.4
2023-02-13T04:20:19.252Z,24.7
2023-02-13T04:25:56.489Z,24.4
2023-02-13T04:31:35.691Z,24.6
2023-02-13T04:37:13.640Z,24.8
2023-02-13T04:42:51.093Z,24.4
2023-02-13T04:48:29.468Z,24.6
2023-02-13T04:54:05.600Z,24.6
2023-02-13T04:59:26.983Z,24.4
2023-02-13T05:04:49.895Z,24.8
2023-02-13T05:10:28.882Z,24.4
2023-02-13T05:16:06.377Z,24.5
2023-02-13T05:21:28.661Z,24.8
2023-02-13T05:26:50.567Z,24.3
2023-02-13T05:32:13.953Z,24.6
2023-02-13T05:37:52.171Z,24.7
2023-02-13T05:43:29.359Z,24.4
2023-02-13T05:49:08.358Z,24.3
2023-02-13T05:54:46.534Z,24.7
2023-02-13T06:00:24.601Z,24.4
2023-02-13T06:06:02.426Z,24.5
2023-02-13T06:11:23.984Z,24.7
2023-02-13T06:17:02.487Z,24.3
2023-02-13T06:22:40.564Z,24.6
2023-02-13T06:28:18.011Z,24.6
2023-02-13T06:33:56.409Z,24.4
2023-02-13T06:39:35.888Z,24.7
2023-02-13T06:44:57.692Z,24.5
2023-02-13T06:50:36.246Z,24.4
2023-02-13T06:56:10.248Z,24.8
2023-02-13T07:01:34.576Z,24.4
2023-02-13T07:07:12.462Z,24.6
2023-02-13T07:13:00.213Z,24.6
2023-02-13T07:18:26.381Z,24.4
2023-02-13T07:24:03.782Z,24.7
2023-02-13T07:29:26.769Z,24.6
2023-02-13T07:35:17.672Z,24.3
2023-02-13T07:40:56.691Z,24.6
2023-02-13T07:46:03.182Z,24.4
2023-02-13T07:51:25.298Z,24.6
2023-02-13T07:56:47.497Z,24.6
2023-02-13T08:02:10.821Z,24.4
2023-02-13T08:07:16.718Z,24.7
2023-02-13T08:12:54.942Z,24.4
2023-02-13T08:18:35.450Z,24.6
2023-02-13T08:24:11.955Z,24.6
2023-02-13T08:29:50.334Z,24.5
2023-02-13T08:35:07.396Z,24.7
2023-02-13T08:40:44.900Z,24.4
2023-02-13T08:46:23.613Z,24.6
2023-02-13T08:51:46.739Z,24.7
2023-02-13T08:57:24.729Z,24.6
2023-02-13T09:02:47.379Z,24.8
2023-02-13T09:08:25.630Z,24.4
2023-02-13T09:14:03.808Z,24.7
2023-02-13T09:19:40.827Z,24.8
2023-02-13T09:25:18.858Z,24.5
2023-02-13T09:30:41.572Z,24.7
2023-02-13T09:36:20.197Z,24.4
2023-02-13T09:41:26.585Z,24.7
2023-02-13T09:47:05.072Z,24.6
2023-02-13T09:52:44.529Z,24.6
2023-02-13T09:58:07.338Z,24.8
2023-02-13T10:03:45.078Z,24.6
2023-02-13T10:09:22.978Z,24.8
2023-02-13T10:14:49.025Z,24.4
2023-02-13T10:20:12.251Z,24.8
2023-02-13T10:25:49.069Z,24.6
2023-02-13T10:30:55.843Z,24.6
2023-02-13T10:36:35.087Z,24.8
2023-02-13T10:42:12.783Z,24.6
2023-02-13T10:47:51.382Z,24.9
2023-02-13T10:53:29.747Z,24.5
2023-02-13T10:59:21.997Z,24.8
2023-02-13T11:05:00.204Z,24.6
2023-02-13T11:10:21.179Z,24.8
2023-02-13T11:15:58.780Z,24.8
2023-02-13T11:21:38.670Z,24.7
2023-02-13T11:26:59.182Z,24.8
2023-02-13T11:32:22.191Z,24.6
2023-02-13T11:37:59.389Z,24.9
2023-02-13T11:43:36.902Z,24.6
2023-02-13T11:49:14.933Z,24.9
2023-02-13T11:54:51.243Z,24.7
2023-02-13T12:00:27.074Z,24.8
2023-02-13T12:05:34.502Z,24.9
2023-02-13T12:10:56.352Z,24.6
2023-02-13T12:16:33.970Z,24.9
2023-02-13T12:21:48.238Z,24.6
2023-02-13T12:27:26.260Z,24.9
2023-02-13T12:33:03.292Z,24.8
2023-02-13T12:38:25.835Z,24.8
2023-02-13T12:44:05.246Z,24.9
2023-02-13T12:49:42.223Z,24.8
2023-02-13T12:55:02.971Z,24.9
2023-02-13T13:00:24.821Z,24.7
2023-02-13T13:06:12.809Z,24.9
2023-02-13T13:11:50.894Z,24.7
2023-02-13T13:17:27.800Z,24.9
2023-02-13T13:22:49.075Z,24.9
2023-02-13T13:28:25.971Z,24.8
2023-02-13T13:33:34.054Z,25.1
2023-02-13T13:39:11.770Z,24.7
2023-02-13T13:44:32.822Z,24.9
2023-02-13T13:49:39.481Z,25
2023-02-13T13:54:45.671Z,24.8
2023-02-13T14:00:24.194Z,25.1
2023-02-13T14:05:48.957Z,24.8
2023-02-13T14:11:26.621Z,24.9
2023-02-13T14:17:06.645Z,25.1
2023-02-13T14:22:28.695Z,24.8
2023-02-13T14:28:13.180Z,25.1
2023-02-13T14:33:51.133Z,24.9
2023-02-13T14:39:15.757Z,24.9
2023-02-13T14:44:38.260Z,25.1
2023-02-13T14:50:15.739Z,24.8
2023-02-13T14:55:52.644Z,25.1
2023-02-13T15:01:30.588Z,24.8
2023-02-13T15:07:08.387Z,24.9
2023-02-13T15:12:30.606Z,25
2023-02-13T15:18:09.060Z,24.8
2023-02-13T15:23:47.086Z,25.1
2023-02-13T15:28:54.077Z,24.8
2023-02-13T15:34:54.069Z,24.9
2023-02-13T15:40:33.527Z,24.9
2023-02-13T15:45:56.258Z,24.5
2023-02-13T15:51:34.308Z,24.2
2023-02-13T15:57:13.136Z,23.9
2023-02-13T16:02:51.684Z,23.8
2023-02-13T16:08:41.760Z,23.6
2023-02-13T16:14:19.230Z,23.4
2023-02-13T16:19:56.941Z,23.3
2023-02-13T16:25:20.710Z,23.1
2023-02-13T16:30:58.905Z,23
2023-02-13T16:36:36.074Z,22.9
2023-02-13T16:42:13.232Z,22.6
2023-02-13T16:47:21.130Z,23.1
2023-02-13T16:52:58.487Z,23.4
2023-02-13T16:58:37.165Z,24.3
2023-02-13T17:04:13.511Z,25
2023-02-13T17:09:35.594Z,25.3
2023-02-13T17:15:12.447Z,25.6
2023-02-13T17:20:51.705Z,25.9
2023-02-13T17:26:13.211Z,26.2
2023-02-13T17:31:53.843Z,26.4
2023-02-13T17:37:31.461Z,26.8
2023-02-13T17:43:08.163Z,27
2023-02-13T17:48:47.297Z,27.2
2023-02-13T17:54:35.879Z,27.3
2023-02-13T18:00:13.975Z,27.5
2023-02-13T18:05:52.061Z,27.7
2023-02-13T18:16:37.962Z,27.9
2023-02-13T18:22:14.953Z,27.9
2023-02-13T18:27:36.848Z,27.9
2023-02-13T18:33:17.549Z,28
2023-02-13T18:38:39.434Z,28.1
2023-02-13T18:44:01.972Z,28.1
2023-02-13T18:49:50.130Z,28.1
2023-02-13T18:55:12.843Z,28.1
2023-02-13T19:00:49.696Z,28.2
2023-02-13T19:06:27.147Z,28.2
2023-02-13T19:12:04.695Z,28.2
2023-02-13T19:17:42.274Z,28.3
2023-02-13T19:22:48.751Z,28.3
2023-02-13T19:28:26.484Z,28.3
2023-02-13T19:33:33.451Z,28.4
2023-02-13T19:39:22.619Z,28.4
2023-02-13T19:45:00.729Z,28.5
2023-02-13T19:50:09.826Z,28.6
2023-02-13T19:55:31.969Z,28.8
2023-02-13T20:01:11.028Z,28.8
2023-02-13T20:06:50.499Z,28.9
2023-02-13T20:11:56.951Z,28.9
2023-02-13T20:17:19.847Z,28.9
2023-02-13T20:22:42.278Z,28.9
2023-02-13T20:28:20.247Z,28.9
2023-02-13T20:33:34.860Z,28.9
2023-02-13T20:38:59.116Z,28.9
2023-02-13T20:44:07.535Z,28.9
2023-02-13T20:49:46.822Z,28.8
2023-02-13T20:54:53.724Z,28.8
2023-02-13T20:59:46.566Z,28.8
2023-02-13T21:05:09.233Z,28.7
2023-02-13T21:10:34.451Z,28.6
2023-02-13T21:16:11.861Z,28.5
2023-02-13T21:21:18.918Z,28.4
2023-02-13T21:26:56.630Z,28.3
2023-02-13T21:32:19.105Z,27.9
2023-02-13T21:37:56.797Z,27.2
2023-02-13T21:43:34.992Z,26.7
2023-02-13T21:49:12.748Z,26.5
2023-02-13T21:54:49.560Z,26.9
2023-02-13T22:00:14.992Z,26.8
2023-02-13T22:05:59.149Z,26.3
2023-02-13T22:11:36.172Z,25.7
2023-02-13T22:17:13.696Z,26.1
2023-02-13T22:22:51.086Z,26.3
2023-02-13T22:28:28.562Z,25.9
2023-02-13T22:34:20.308Z,25.4
2023-02-13T22:39:56.627Z,25.3
2023-02-13T22:45:33.530Z,25.6
2023-02-13T22:51:10.942Z,25.8
2023-02-13T22:56:48.274Z,25.3
2023-02-13T23:01:39.661Z,25.4
2023-02-13T23:07:18.291Z,25.7
2023-02-13T23:12:55.883Z,25.3
2023-02-13T23:18:19.219Z,25.3
2023-02-13T23:23:41.393Z,25.5
2023-02-13T23:29:03.250Z,25.3
2023-02-13T23:34:11.007Z,25
2023-02-13T23:39:17.481Z,25.3
2023-02-13T23:44:40.653Z,25.3
2023-02-13T23:50:02.735Z,24.9
2023-02-13T23:55:39.987Z,25
